Time;durP1;ratioP1;P1;durP2;ratioP2;P2;SDS_P1;SDS_P2;PMS_P1;PMS_P2;Temp;Humidity;BMP_temperature;BMP_pressure;BME280_temperature;BME280_humidity;BME280_pressure;Samples;Min_cycle;Max_cycle;Signal;HPM_P1;HPM_P2
2021/03/04 00:00:22;;;;;;;;;;;;;;;8.30;79.87;99738.88;5053711;28;20661;-79
2021/03/04 00:02:48;;;;;;;;;;;;;;;8.15;80.54;99733.91;5053034;28;20015;-79
2021/03/04 00:05:14;;;;;;;;;;;;;;;8.12;80.05;99729.66;5057375;28;20047;-79
2021/03/04 00:07:39;;;;;;;;;;;;;;;8.25;79.79;99719.25;5042170;28;20376;-78
2021/03/04 00:10:06;;;;;;;;;;;;;;;8.14;79.67;99716.78;5060203;28;19927;-79
2021/03/04 00:12:31;;;;;;;;;;;;;;;7.81;80.55;99718.84;5041661;28;19924;-79
2021/03/04 00:14:56;;;;;;;;;;;;;;;8.17;80.17;99714.22;5058908;28;19920;-79
2021/03/04 00:17:22;;;;;;;;;;;;;;;8.36;78.71;99705.44;5039976;28;19917;-79
2021/03/04 00:19:47;;;;;;;;;;;;;;;8.23;78.60;99701.28;5059087;28;21086;-79
2021/03/04 00:22:13;;;;;;;;;;;;;;;8.16;79.90;99709.94;5040562;28;20291;-79
2021/03/04 00:24:38;;;;;;;;;;;;;;;8.03;80.10;99698.97;5040096;28;19991;-78
2021/03/04 00:27:04;;;;;;;;;;;;;;;8.38;79.21;99695.16;5058678;28;19921;-79
2021/03/04 00:29:29;;;;;;;;;;;;;;;8.38;78.53;99696.00;5060260;28;19927;-79
2021/03/04 00:31:55;;;;;;;;;;;;;;;8.46;78.28;99693.38;5041086;28;20034;-79
2021/03/04 00:34:20;;;;;;;;;;;;;;;8.12;79.60;99698.03;5057293;28;19916;-78
2021/03/04 00:36:45;;;;;;;;;;;;;;;8.01;79.96;99689.59;5058566;28;19924;-79
2021/03/04 00:39:11;;;;;;;;;;;;;;;7.82;80.53;99694.88;5059165;28;19924;-79
2021/03/04 00:41:36;;;;;;;;;;;;;;;8.07;79.37;99689.50;5056840;28;19931;-79
2021/03/04 00:44:03;;;;;;;;;;;;;;;8.40;78.73;99690.00;5056320;28;19920;-78
2021/03/04 00:46:28;;;;;;;;;;;;;;;8.47;78.45;99689.09;5052654;28;19925;-79
2021/03/04 00:48:54;;;;;;;;;;;;;;;8.42;78.36;99685.75;5040574;28;19977;-79
2021/03/04 00:51:19;;;;;;;;;;;;;;;7.85;79.79;99687.19;5038915;28;19994;-79
2021/03/04 00:53:44;;;;;;;;;;;;;;;8.06;79.58;99682.69;5038774;28;19923;-79
2021/03/04 00:56:10;;;;;;;;;;;;;;;8.26;78.78;99675.63;5055617;28;19920;-79
2021/03/04 00:58:35;;;;;;;;;;;;;;;8.06;79.93;99677.56;5041068;28;20118;-79
2021/03/04 01:01:00;;;;;;;;;;;;;;;8.04;80.16;99682.69;5039741;28;19923;-78
2021/03/04 01:03:26;;;;;;;;;;;;;;;7.64;81.19;99690.81;5050230;28;20721;-79
2021/03/04 01:05:51;;;;;;;;;;;;;;;7.94;80.66;99679.38;5053666;28;20082;-79
2021/03/04 01:08:17;;;;;;;;;;;;;;;7.91;80.81;99674.31;5038198;28;19924;-78
2021/03/04 01:10:42;;;;;;;;;;;;;;;7.66;81.78;99676.25;5038026;28;20012;-79
2021/03/04 01:13:10;;;;;;;;;;;;;;;7.68;81.33;99669.38;5035385;28;20686;-78
2021/03/04 01:15:35;;;;;;;;;;;;;;;8.16;79.46;99676.56;5053346;28;20354;-78
2021/03/04 01:18:02;;;;;;;;;;;;;;;8.06;79.94;99672.44;5052922;28;19920;-79
2021/03/04 01:20:27;;;;;;;;;;;;;;;8.01;79.66;99674.22;5053895;28;20445;-79
2021/03/04 01:22:53;;;;;;;;;;;;;;;7.90;79.79;99671.75;5053412;28;20000;-78
2021/03/04 01:25:18;;;;;;;;;;;;;;;7.52;81.06;99671.22;5051105;28;19931;-78
2021/03/04 01:27:44;;;;;;;;;;;;;;;7.49;81.28;99661.00;5049026;28;19920;-78
2021/03/04 01:30:10;;;;;;;;;;;;;;;7.35;81.83;99657.72;5048711;28;19971;-78
2021/03/04 01:32:36;;;;;;;;;;;;;;;7.42;81.82;99654.25;5032162;28;19921;-79
2021/03/04 01:35:01;;;;;;;;;;;;;;;7.48;81.62;99648.19;5030080;28;19921;-78
2021/03/04 01:37:27;;;;;;;;;;;;;;;7.64;81.20;99638.66;5015783;28;19959;-79
2021/03/04 01:39:53;;;;;;;;;;;;;;;7.40;81.34;99644.88;5050249;28;21046;-79
2021/03/04 01:42:18;;;;;;;;;;;;;;;7.52;81.78;99640.47;5051177;28;20494;-79
2021/03/04 01:44:43;;;;;;;;;;;;;;;7.71;80.86;99635.19;5031706;28;19928;-79
2021/03/04 01:47:09;;;;;;;;;;;;;;;7.57;80.95;99631.91;5054342;28;19990;-79
2021/03/04 01:49:34;;;;;;;;;;;;;;;7.60;80.50;99626.75;5050844;28;20953;-78
2021/03/04 01:52:00;;;;;;;;;;;;;;;7.46;81.13;99630.31;5037446;28;20469;-78
2021/03/04 01:54:25;;;;;;;;;;;;;;;7.61;81.08;99628.44;5031718;28;20387;-79
2021/03/04 01:56:51;;;;;;;;;;;;;;;7.60;80.83;99626.75;5032561;28;20285;-79
2021/03/04 01:59:16;;;;;;;;;;;;;;;7.63;80.55;99631.84;5036005;28;20267;-79
2021/03/04 02:01:54;;;;;;;;;;;;;;;7.68;80.68;99624.94;5051810;28;19921;-78
2021/03/04 02:04:19;;;;;;;;;;;;;;;6.34;83.38;99632.78;5051382;28;19924;-79
2021/03/04 02:07:14;;;;;;;;;;;;;;;6.98;83.57;99636.66;5035128;28;20637;-78
2021/03/04 02:09:41;;;;;;;;;;;;;;;7.37;82.15;99629.50;5035931;28;20536;-79
2021/03/04 02:12:15;;;;;;;;;;;;;;;7.84;79.98;99620.50;5019368;28;19920;-78
2021/03/04 02:14:46;;;;;;;;;;;;;;;7.73;79.80;99618.94;5035792;28;19960;-79
2021/03/04 02:17:12;;;;;;;;;;;;;;;7.72;79.53;99606.13;5051142;28;20048;-78
2021/03/04 02:19:40;;;;;;;;;;;;;;;7.23;81.46;99615.13;5022437;28;19984;-79
2021/03/04 02:22:13;;;;;;;;;;;;;;;7.22;81.97;99613.41;5052959;28;19936;-77
2021/03/04 02:24:57;;;;;;;;;;;;;;;7.49;81.42;99614.03;5053425;28;19932;-79
2021/03/04 02:27:27;;;;;;;;;;;;;;;7.68;80.37;99594.19;5052145;28;20498;-79
2021/03/04 02:30:00;;;;;;;;;;;;;;;7.48;80.79;99597.81;5053820;28;19956;-79
2021/03/04 02:32:25;;;;;;;;;;;;;;;7.18;82.47;99598.94;5052932;28;19920;-78
2021/03/04 02:34:53;;;;;;;;;;;;;;;7.10;83.03;99586.19;5035859;28;19927;-79
2021/03/04 02:37:18;;;;;;;;;;;;;;;7.11;83.58;99585.31;5037618;28;19999;-78
2021/03/04 02:39:45;;;;;;;;;;;;;;;7.24;83.10;99583.50;5033145;28;20364;-79
2021/03/04 02:42:11;;;;;;;;;;;;;;;7.40;82.46;99594.47;5035646;28;19927;-79
2021/03/04 02:44:36;;;;;;;;;;;;;;;7.66;81.94;99577.97;5035290;28;19967;-78
2021/03/04 02:47:01;;;;;;;;;;;;;;;7.81;80.35;99570.13;5054154;28;19924;-78
2021/03/04 02:49:27;;;;;;;;;;;;;;;7.46;81.66;99575.63;5053252;28;19920;-79
2021/03/04 02:51:52;;;;;;;;;;;;;;;7.42;82.61;99569.69;5037632;28;19920;-78
2021/03/04 02:54:17;;;;;;;;;;;;;;;7.68;81.51;99560.88;5052566;28;19927;-78
2021/03/04 02:56:43;;;;;;;;;;;;;;;7.67;81.50;99554.91;5053406;28;19928;-79
2021/03/04 02:59:08;;;;;;;;;;;;;;;7.58;82.21;99556.72;5053856;28;19942;-78
2021/03/04 03:01:34;;;;;;;;;;;;;;;7.79;81.99;99551.34;5036376;28;20623;-79
2021/03/04 03:03:59;;;;;;;;;;;;;;;7.95;81.63;99541.75;5052066;28;20135;-79
2021/03/04 03:06:25;;;;;;;;;;;;;;;8.04;80.74;99546.75;5052608;28;20057;-79
2021/03/04 03:08:50;;;;;;;;;;;;;;;8.07;80.63;99546.69;5053016;28;19922;-79
2021/03/04 03:11:17;;;;;;;;;;;;;;;7.56;83.17;99556.72;5052346;28;19983;-79
2021/03/04 03:13:42;;;;;;;;;;;;;;;6.92;87.66;99568.44;5035349;28;20474;-79
2021/03/04 03:16:08;;;;;;;;;;;;;;;6.89;88.13;99571.03;5051907;28;20070;-79
2021/03/04 03:18:33;;;;;;;;;;;;;;;6.59;90.73;99572.94;5033478;28;20367;-78
2021/03/04 03:20:59;;;;;;;;;;;;;;;6.60;91.20;99572.06;5033485;28;19925;-78
2021/03/04 03:23:24;;;;;;;;;;;;;;;6.39;92.83;99569.66;5035105;28;19948;-79
2021/03/04 03:25:50;;;;;;;;;;;;;;;6.55;92.02;99571.25;5053186;28;19924;-78
2021/03/04 03:28:15;;;;;;;;;;;;;;;6.39;92.63;99567.09;5035074;28;19920;-79
2021/03/04 03:30:40;;;;;;;;;;;;;;;5.93;96.47;99567.28;5051921;28;20006;-78
2021/03/04 03:33:07;;;;;;;;;;;;;;;5.93;96.46;99570.72;5019838;28;19931;-78
2021/03/04 03:35:32;;;;;;;;;;;;;;;6.00;96.30;99558.78;5034005;28;19916;-79
2021/03/04 03:37:59;;;;;;;;;;;;;;;6.55;92.92;99561.03;5035163;28;20057;-78
2021/03/04 03:40:25;;;;;;;;;;;;;;;6.99;89.82;99548.75;5036316;28;19925;-78
2021/03/04 03:42:51;;;;;;;;;;;;;;;7.02;88.86;99546.16;5049461;28;19931;-78
2021/03/04 03:45:17;;;;;;;;;;;;;;;7.57;87.64;99529.38;5016839;28;19931;-79
2021/03/04 03:47:42;;;;;;;;;;;;;;;7.91;85.92;99525.56;5035719;28;19925;-78
2021/03/04 03:50:08;;;;;;;;;;;;;;;8.01;84.61;99526.28;5032856;28;19921;-78
2021/03/04 03:52:34;;;;;;;;;;;;;;;7.20;86.69;99535.72;5050666;28;19970;-78
2021/03/04 03:54:59;;;;;;;;;;;;;;;6.42;91.64;99544.91;5052746;28;19921;-78
2021/03/04 03:57:27;;;;;;;;;;;;;;;6.14;93.42;99544.22;5054398;28;20002;-78
2021/03/04 03:59:53;;;;;;;;;;;;;;;6.22;92.80;99547.56;5022634;28;20284;-77
2021/03/04 04:02:19;;;;;;;;;;;;;;;6.30;92.71;99544.13;5056419;28;19916;-78
2021/03/04 04:04:44;;;;;;;;;;;;;;;6.50;91.34;99529.50;5055393;28;19985;-79
2021/03/04 04:07:12;;;;;;;;;;;;;;;6.88;88.95;99526.63;5052602;28;20015;-79
2021/03/04 04:09:37;;;;;;;;;;;;;;;7.17;87.51;99511.88;5056741;28;19925;-78
2021/03/04 04:12:03;;;;;;;;;;;;;;;7.73;86.67;99515.50;5054971;28;19974;-77
2021/03/04 04:14:28;;;;;;;;;;;;;;;7.24;86.81;99516.91;5051624;28;19921;-78
2021/03/04 04:16:54;;;;;;;;;;;;;;;6.36;92.85;99521.06;5054045;28;20420;-79
2021/03/04 04:19:19;;;;;;;;;;;;;;;6.37;92.88;99521.06;5035621;28;20362;-78
2021/03/04 04:21:45;;;;;;;;;;;;;;;6.60;91.90;99513.22;5035961;28;19920;-79
2021/03/04 04:24:10;;;;;;;;;;;;;;;7.21;89.09;99495.63;5055745;28;19962;-78
2021/03/04 04:26:36;;;;;;;;;;;;;;;6.58;91.32;99502.13;5035605;28;20669;-79
2021/03/04 04:29:01;;;;;;;;;;;;;;;6.10;94.34;99500.78;5037862;28;19962;-78
2021/03/04 04:31:26;;;;;;;;;;;;;;;6.10;94.98;99499.06;5020692;28;20397;-79
2021/03/04 04:33:52;;;;;;;;;;;;;;;6.33;94.86;99492.94;5036768;28;21000;-79
2021/03/04 04:36:17;;;;;;;;;;;;;;;7.22;90.82;99469.97;5038214;28;19962;-78
2021/03/04 04:38:43;;;;;;;;;;;;;;;7.70;87.61;99459.16;5038369;28;20347;-78
2021/03/04 04:41:08;;;;;;;;;;;;;;;7.86;86.54;99459.78;5036463;28;20014;-78
2021/03/04 04:43:34;;;;;;;;;;;;;;;7.82;85.41;99455.56;5037985;28;19939;-79
2021/03/04 04:45:59;;;;;;;;;;;;;;;7.02;87.84;99459.91;5031764;28;19928;-79
2021/03/04 04:48:24;;;;;;;;;;;;;;;7.24;86.37;99459.72;5017914;28;19924;-79
2021/03/04 04:50:50;;;;;;;;;;;;;;;7.69;86.61;99448.06;5032504;28;19931;-78
2021/03/04 04:53:15;;;;;;;;;;;;;;;7.75;86.19;99445.44;5054595;28;20457;-78
2021/03/04 04:55:40;;;;;;;;;;;;;;;6.98;88.97;99452.28;5049525;28;19925;-79
2021/03/04 04:58:06;;;;;;;;;;;;;;;6.62;90.47;99449.22;5019759;28;20003;-78
2021/03/04 05:00:31;;;;;;;;;;;;;;;6.19;93.05;99452.97;5016983;28;19924;-79
2021/03/04 05:02:56;;;;;;;;;;;;;;;5.95;94.86;99448.00;5036387;28;19916;-78
2021/03/04 05:05:22;;;;;;;;;;;;;;;5.91;95.64;99454.84;5025550;28;19931;-78
2021/03/04 05:07:47;;;;;;;;;;;;;;;6.63;91.75;99450.91;5038548;28;19917;-79
2021/03/04 05:10:13;;;;;;;;;;;;;;;6.85;91.00;99441.34;5039664;28;19920;-78
2021/03/04 05:12:38;;;;;;;;;;;;;;;7.45;87.65;99431.25;5022171;28;20007;-78
2021/03/04 05:15:04;;;;;;;;;;;;;;;7.62;86.55;99427.63;5038100;28;19927;-78
2021/03/04 05:17:30;;;;;;;;;;;;;;;7.65;86.02;99417.34;5019550;28;20452;-78
2021/03/04 05:19:55;;;;;;;;;;;;;;;7.62;85.90;99425.06;5035290;28;19920;-77
2021/03/04 05:22:20;;;;;;;;;;;;;;;7.42;84.60;99423.63;5032759;28;19952;-78
2021/03/04 05:24:46;;;;;;;;;;;;;;;5.63;92.32;99449.00;5020919;28;19921;-77
2021/03/04 05:27:11;;;;;;;;;;;;;;;4.83;98.42;99446.69;5038103;28;19924;-79
2021/03/04 05:29:37;;;;;;;;;;;;;;;4.79;99.69;99442.47;5022107;28;19916;-77
2021/03/04 05:32:02;;;;;;;;;;;;;;;4.72;99.71;99435.66;5038670;28;20003;-77
2021/03/04 05:34:27;;;;;;;;;;;;;;;4.71;100.00;99428.88;5039045;28;19916;-78
2021/03/04 05:36:53;;;;;;;;;;;;;;;5.89;95.18;99412.25;5037799;28;20488;-77
2021/03/04 05:39:18;;;;;;;;;;;;;;;6.17;91.37;99413.78;5038189;28;20514;-78
2021/03/04 05:41:44;;;;;;;;;;;;;;;5.19;97.68;99421.94;5038723;28;19916;-79
2021/03/04 05:44:09;;;;;;;;;;;;;;;5.00;98.11;99429.66;5008270;28;19982;-77
2021/03/04 05:46:35;;;;;;;;;;;;;;;4.90;98.49;99430.53;5034550;28;19978;-78
2021/03/04 05:49:00;;;;;;;;;;;;;;;5.11;97.28;99429.63;5040043;28;19916;-78
2021/03/04 05:51:26;;;;;;;;;;;;;;;5.12;97.57;99427.94;5055847;28;19926;-79
2021/03/04 05:53:55;;;;;;;;;;;;;;;5.11;97.34;99426.22;5037831;28;20368;-77
2021/03/04 05:56:21;;;;;;;;;;;;;;;4.52;100.00;99423.78;5022038;28;20035;-77
2021/03/04 05:58:46;;;;;;;;;;;;;;;4.55;100.00;99428.88;5036260;28;20007;-78
2021/03/04 06:01:11;;;;;;;;;;;;;;;4.60;100.00;99431.44;5020975;28;20517;-78
2021/03/04 06:03:37;;;;;;;;;;;;;;;4.13;100.00;99430.59;5034029;28;19916;-77
2021/03/04 06:06:02;;;;;;;;;;;;;;;3.91;100.00;99439.88;5032725;28;19924;-78
2021/03/04 06:08:28;;;;;;;;;;;;;;;3.94;100.00;99436.50;5035570;28;19917;-77
2021/03/04 06:10:53;;;;;;;;;;;;;;;4.05;100.00;99439.06;5051189;28;19916;-78
2021/03/04 06:13:19;;;;;;;;;;;;;;;3.98;100.00;99440.75;5031496;28;19988;-79
2021/03/04 06:15:44;;;;;;;;;;;;;;;3.98;100.00;99435.66;5033787;28;20301;-77
2021/03/04 06:18:09;;;;;;;;;;;;;;;3.92;100.00;99430.53;5021601;28;19981;-79
2021/03/04 06:20:38;;;;;;;;;;;;;;;3.86;100.00;99428.84;5017623;28;19927;-79
2021/03/04 06:23:03;;;;;;;;;;;;;;;3.92;100.00;99430.53;5052439;28;20051;-78
2021/03/04 06:25:29;;;;;;;;;;;;;;;3.94;100.00;99434.78;5050549;28;20015;-77
2021/03/04 06:27:55;;;;;;;;;;;;;;;3.84;100.00;99437.34;5022987;28;19986;-78
2021/03/04 06:30:20;;;;;;;;;;;;;;;3.88;100.00;99433.97;5054499;28;19956;-79
2021/03/04 06:32:59;;;;;;;;;;;;;;;4.10;100.00;99432.28;5050569;28;20693;-78
2021/03/04 06:35:29;;;;;;;;;;;;;;;4.21;100.00;99434.84;5015555;28;20292;-76
2021/03/04 06:37:54;;;;;;;;;;;;;;;4.42;100.00;99432.28;5052490;28;19920;-78
2021/03/04 06:40:32;;;;;;;;;;;;;;;4.19;100.00;99425.47;5019252;28;20199;-76
2021/03/04 06:42:58;;;;;;;;;;;;;;;3.92;100.00;99425.44;5017870;28;20477;-77
2021/03/04 06:45:42;;;;;;;;;;;;;;;4.37;100.00;99426.34;5045551;28;20031;-78
2021/03/04 06:48:17;;;;;;;;;;;;;;;4.23;100.00;99433.13;5048808;28;20392;-78
2021/03/04 06:50:43;;;;;;;;;;;;;;;3.95;100.00;99428.88;5023221;28;19947;-78
2021/03/04 06:53:28;;;;;;;;;;;;;;;4.41;100.00;99420.41;5016796;28;19916;-79
2021/03/04 06:56:04;;;;;;;;;;;;;;;4.22;100.00;99418.69;5020993;28;19920;-78
2021/03/04 06:58:30;;;;;;;;;;;;;;;4.72;100.00;99405.03;5048265;28;19987;-78
2021/03/04 07:01:02;;;;;;;;;;;;;;;4.68;100.00;99411.88;5049735;28;20016;-78
2021/03/04 07:03:42;;;;;;;;;;;;;;;4.60;100.00;99411.84;5048424;28;19927;-78
2021/03/04 07:06:09;;;;;;;;;;;;;;;4.38;100.00;99413.59;5045223;28;20504;-78
2021/03/04 07:08:36;;;;;;;;;;;;;;;5.09;99.93;99410.91;5029488;28;19960;-77
2021/03/04 07:11:02;;;;;;;;;;;;;;;5.48;97.40;99408.22;5049444;28;19928;-79
2021/03/04 07:13:27;;;;;;;;;;;;;;;4.46;100.00;99413.59;5047481;28;20027;-77
2021/03/04 07:15:53;;;;;;;;;;;;;;;4.31;100.00;99405.94;5032644;28;20003;-80
2021/03/04 07:18:18;;;;;;;;;;;;;;;4.37;100.00;99395.75;5034121;28;20031;-79
2021/03/04 07:20:43;;;;;;;;;;;;;;;5.56;97.05;99391.13;5032636;28;19997;-79
2021/03/04 07:23:09;;;;;;;;;;;;;;;5.86;94.06;99393.50;5049972;28;19973;-77
2021/03/04 07:25:35;;;;;;;;;;;;;;;6.03;93.60;99387.47;5026711;28;20006;-77
2021/03/04 07:28:00;;;;;;;;;;;;;;;6.52;91.80;99384.47;5019217;28;20020;-78
2021/03/04 07:30:26;;;;;;;;;;;;;;;5.86;92.15;99396.06;5051124;28;20452;-78
2021/03/04 07:32:51;;;;;;;;;;;;;;;6.07;91.93;99404.47;5011308;28;19942;-79
2021/03/04 07:35:16;;;;;;;;;;;;;;;5.68;95.48;99414.06;5020538;28;20007;-79
2021/03/04 07:37:42;;;;;;;;;;;;;;;5.48;96.54;99423.53;5012084;28;20627;-80
2021/03/04 07:40:09;;;;;;;;;;;;;;;6.22;92.45;99418.84;5048617;28;19917;-79
2021/03/04 07:42:34;;;;;;;;;;;;;;;5.59;94.72;99424.34;5000937;28;19980;-78
2021/03/04 07:45:13;;;;;;;;;;;;;;;4.27;100.00;99432.31;4999500;28;20310;-77
2021/03/04 07:47:38;;;;;;;;;;;;;;;4.53;100.00;99429.72;5031399;28;19932;-78
2021/03/04 07:50:14;;;;;;;;;;;;;;;4.72;100.00;99430.56;5043931;28;19916;-76
2021/03/04 07:52:39;;;;;;;;;;;;;;;4.53;100.00;99434.84;4994680;28;19921;-77
2021/03/04 07:55:10;;;;;;;;;;;;;;;4.52;100.00;99428.88;5046603;28;20465;-80
2021/03/04 07:57:45;;;;;;;;;;;;;;;4.55;100.00;99441.63;4986134;28;19917;-76
2021/03/04 08:00:11;;;;;;;;;;;;;;;4.25;100.00;99439.09;5032183;28;19950;-79
2021/03/04 08:02:42;;;;;;;;;;;;;;;4.24;100.00;99435.66;5047299;28;19928;-78
2021/03/04 08:05:08;;;;;;;;;;;;;;;4.33;100.00;99437.38;5047458;28;20029;-79
2021/03/04 08:07:33;;;;;;;;;;;;;;;4.84;100.00;99420.34;5047510;28;20673;-78
2021/03/04 08:10:05;;;;;;;;;;;;;;;4.54;100.00;99421.25;5034160;28;19920;-77
2021/03/04 08:12:30;;;;;;;;;;;;;;;4.73;100.00;99417.81;5048393;28;19977;-78
2021/03/04 08:14:56;;;;;;;;;;;;;;;4.56;100.00;99429.72;5051013;28;20234;-79
2021/03/04 08:17:22;;;;;;;;;;;;;;;4.19;100.00;99439.94;5030077;28;20136;-79
2021/03/04 08:19:47;;;;;;;;;;;;;;;3.92;100.00;99446.69;5032456;28;19970;-79
2021/03/04 08:22:15;;;;;;;;;;;;;;;3.80;100.00;99459.41;5014372;28;20550;-78
2021/03/04 08:24:41;;;;;;;;;;;;;;;3.71;100.00;99450.03;5033795;28;19917;-79
2021/03/04 08:27:06;;;;;;;;;;;;;;;3.65;100.00;99451.69;5053122;28;19927;-78
2021/03/04 08:29:32;;;;;;;;;;;;;;;3.81;100.00;99448.38;5036788;28;19916;-77
2021/03/04 08:32:00;;;;;;;;;;;;;;;3.89;100.00;99446.69;5048861;28;19946;-79
2021/03/04 08:34:34;;;;;;;;;;;;;;;3.72;100.00;99444.09;5052447;28;19940;-79
2021/03/04 08:36:59;;;;;;;;;;;;;;;3.93;100.00;99452.66;4997533;28;19931;-77
2021/03/04 08:39:29;;;;;;;;;;;;;;;3.95;100.00;99451.78;5028827;28;19917;-80
2021/03/04 08:42:20;;;;;;;;;;;;;;;4.06;100.00;99444.19;5048108;28;20550;-78
2021/03/04 08:44:47;;;;;;;;;;;;;;;3.97;100.00;99456.91;5039525;28;19924;-77
2021/03/04 08:47:13;;;;;;;;;;;;;;;4.06;100.00;99444.19;5042623;28;20023;-79
2021/03/04 08:49:38;;;;;;;;;;;;;;;3.92;100.00;99444.16;5015831;28;19917;-79
2021/03/04 08:52:04;;;;;;;;;;;;;;;4.08;100.00;99444.16;5050539;28;19973;-80
2021/03/04 08:54:29;;;;;;;;;;;;;;;3.77;100.00;99442.41;5048803;28;19920;-78
2021/03/04 08:56:55;;;;;;;;;;;;;;;3.82;100.00;99444.13;5031418;28;21333;-77
2021/03/04 08:59:21;;;;;;;;;;;;;;;3.61;100.00;99442.38;5031927;28;20834;-79
2021/03/04 09:01:47;;;;;;;;;;;;;;;3.54;100.00;99441.50;5009453;28;19925;-78
2021/03/04 09:04:19;;;;;;;;;;;;;;;3.53;100.00;99435.53;5047109;28;20645;-78
2021/03/04 09:06:44;;;;;;;;;;;;;;;3.71;100.00;99436.44;5016564;28;19920;-79
2021/03/04 09:09:09;;;;;;;;;;;;;;;3.64;100.00;99430.47;5028207;28;19927;-79
2021/03/04 09:11:35;;;;;;;;;;;;;;;3.61;100.00;99430.47;5014231;28;19967;-78
2021/03/04 09:14:04;;;;;;;;;;;;;;;3.55;100.00;99431.31;5030099;28;19916;-79
2021/03/04 09:16:36;;;;;;;;;;;;;;;3.59;100.00;99434.72;5030772;28;19920;-79
2021/03/04 09:19:02;;;;;;;;;;;;;;;3.56;100.00;99437.25;5009745;28;20024;-77
2021/03/04 09:21:27;;;;;;;;;;;;;;;3.44;100.00;99435.50;5032118;28;19935;-81
2021/03/04 09:23:54;;;;;;;;;;;;;;;3.64;100.00;99430.47;5045810;28;20206;-79
2021/03/04 09:26:19;;;;;;;;;;;;;;;3.67;100.00;99430.50;5047537;28;19954;-79
2021/03/04 09:28:45;;;;;;;;;;;;;;;3.64;100.00;99435.56;5029670;28;19923;-77
2021/03/04 09:31:14;;;;;;;;;;;;;;;3.47;100.00;99434.69;5030834;28;20393;-78
2021/03/04 09:33:40;;;;;;;;;;;;;;;3.54;100.00;99433.84;5022850;28;19920;-79
2021/03/04 09:36:06;;;;;;;;;;;;;;;3.55;100.00;99435.53;5004848;28;19923;-79
2021/03/04 09:38:33;;;;;;;;;;;;;;;3.53;100.00;99427.06;5020146;28;19923;-77
2021/03/04 09:41:11;;;;;;;;;;;;;;;3.49;100.00;99420.25;5022040;28;20649;-79
2021/03/04 09:43:45;;;;;;;;;;;;;;;3.65;100.00;99416.91;5016729;28;19917;-82
2021/03/04 09:46:11;;;;;;;;;;;;;;;3.61;100.00;99409.25;5018320;28;19952;-78
2021/03/04 09:48:38;;;;;;;;;;;;;;;3.71;100.00;99401.63;5012490;28;19927;-79
2021/03/04 09:51:03;;;;;;;;;;;;;;;3.76;100.00;99406.72;4997358;28;19928;-80
2021/03/04 09:53:29;;;;;;;;;;;;;;;3.77;100.00;99405.91;5032334;28;19916;-80
2021/03/04 09:55:54;;;;;;;;;;;;;;;3.86;100.00;99395.72;5030759;28;20041;-81
2021/03/04 09:58:23;;;;;;;;;;;;;;;4.05;100.00;99399.13;5014596;28;19920;-80
2021/03/04 10:00:56;;;;;;;;;;;;;;;4.37;100.00;99393.19;5046724;28;19923;-81
2021/03/04 10:03:29;;;;;;;;;;;;;;;4.77;100.00;99388.88;5012941;28;19913;-82
2021/03/04 10:05:55;;;;;;;;;;;;;;;5.39;100.00;99386.97;5014047;28;20401;-82
2021/03/04 10:08:21;;;;;;;;;;;;;;;5.81;98.23;99382.44;5008454;28;19920;-81
2021/03/04 10:10:48;;;;;;;;;;;;;;;5.20;100.00;99378.53;5019838;28;19916;-82
2021/03/04 10:13:14;;;;;;;;;;;;;;;5.29;99.56;99371.69;5032031;28;19917;-80
2021/03/04 10:15:40;;;;;;;;;;;;;;;5.65;98.48;99370.63;5021149;28;19996;-80
2021/03/04 10:18:10;;;;;;;;;;;;;;;5.71;97.40;99370.59;5047894;28;19971;-79
2021/03/04 10:20:36;;;;;;;;;;;;;;;4.89;100.00;99372.69;5028909;28;19952;-78
2021/03/04 10:23:01;;;;;;;;;;;;;;;4.43;100.00;99375.34;5046162;28;20712;-80
2021/03/04 10:25:27;;;;;;;;;;;;;;;4.45;100.00;99373.66;5024825;28;19994;-79
2021/03/04 10:27:54;;;;;;;;;;;;;;;4.96;100.00;99358.22;5047118;28;20674;-81
2021/03/04 10:30:20;;;;;;;;;;;;;;;5.38;99.67;99352.06;5028720;28;19920;-79
2021/03/04 10:32:46;;;;;;;;;;;;;;;5.03;100.00;99344.56;5044467;28;19924;-80
2021/03/04 10:35:13;;;;;;;;;;;;;;;5.03;100.00;99339.47;5030145;28;19958;-80
2021/03/04 10:37:38;;;;;;;;;;;;;;;5.73;97.36;99348.44;5009165;28;19921;-79
2021/03/04 10:40:05;;;;;;;;;;;;;;;5.19;100.00;99350.44;5028538;28;20629;-79
2021/03/04 10:42:30;;;;;;;;;;;;;;;5.30;99.72;99358.91;5024358;28;19943;-80
2021/03/04 10:44:59;;;;;;;;;;;;;;;4.65;100.00;99362.53;5046193;28;19917;-79
2021/03/04 10:47:24;;;;;;;;;;;;;;;5.05;100.00;99362.44;5043799;28;19931;-80
2021/03/04 10:49:50;;;;;;;;;;;;;;;4.78;100.00;99356.56;5027912;28;19925;-79
2021/03/04 10:52:15;;;;;;;;;;;;;;;4.10;100.00;99369.41;5029733;28;19956;-78
2021/03/04 10:54:40;;;;;;;;;;;;;;;4.36;100.00;99364.31;5028727;28;19947;-79
2021/03/04 10:57:06;;;;;;;;;;;;;;;4.41;100.00;99359.19;5026876;28;20275;-79
2021/03/04 10:59:31;;;;;;;;;;;;;;;4.27;100.00;99361.75;5024880;28;20345;-79
2021/03/04 11:01:57;;;;;;;;;;;;;;;4.17;100.00;99366.03;5029039;28;20984;-79
2021/03/04 11:04:22;;;;;;;;;;;;;;;4.01;100.00;99363.47;5045053;28;19916;-79
2021/03/04 11:06:47;;;;;;;;;;;;;;;3.87;100.00;99373.63;5044609;28;19951;-78
2021/03/04 11:09:13;;;;;;;;;;;;;;;3.81;100.00;99373.63;5019013;28;20012;-78
2021/03/04 11:11:38;;;;;;;;;;;;;;;3.39;100.00;99381.19;5027228;28;19932;-78
2021/03/04 11:14:04;;;;;;;;;;;;;;;3.27;100.00;99387.09;5046429;28;19970;-80
2021/03/04 11:16:30;;;;;;;;;;;;;;;3.24;100.00;99389.63;5046878;28;19928;-79
2021/03/04 11:18:55;;;;;;;;;;;;;;;3.22;100.00;99391.31;5047496;28;19986;-82
2021/03/04 11:21:20;;;;;;;;;;;;;;;3.13;100.00;99381.09;5047400;28;19963;-82
2021/03/04 11:23:46;;;;;;;;;;;;;;;3.29;100.00;99389.66;5048282;28;19955;-82
2021/03/04 11:26:11;;;;;;;;;;;;;;;3.19;100.00;99380.25;5048063;28;19921;-82
2021/03/04 11:28:36;;;;;;;;;;;;;;;3.47;100.00;99387.16;5027110;28;19944;-82
2021/03/04 11:31:02;;;;;;;;;;;;;;;3.29;100.00;99382.84;5024464;28;19917;-81
2021/03/04 11:33:27;;;;;;;;;;;;;;;3.25;100.00;99381.13;5028381;28;19921;-81
2021/03/04 11:35:53;;;;;;;;;;;;;;;3.35;100.00;99377.78;5032882;28;19917;-81
2021/03/04 11:38:18;;;;;;;;;;;;;;;3.34;100.00;99381.16;5020574;28;20389;-80
2021/03/04 11:40:43;;;;;;;;;;;;;;;3.47;100.00;99376.13;5030240;28;19999;-81
2021/03/04 11:43:09;;;;;;;;;;;;;;;3.30;100.00;99374.34;5028856;28;19922;-80
2021/03/04 11:45:34;;;;;;;;;;;;;;;3.53;100.00;99373.56;5028916;28;20003;-81
2021/03/04 11:47:59;;;;;;;;;;;;;;;3.43;100.00;99370.16;5011175;28;19923;-80
2021/03/04 11:50:25;;;;;;;;;;;;;;;3.42;100.00;99367.59;5026133;28;19928;-81
2021/03/04 11:52:50;;;;;;;;;;;;;;;3.51;100.00;99362.53;5046298;28;19916;-80
2021/03/04 11:55:15;;;;;;;;;;;;;;;3.48;100.00;99360.00;5046493;28;19923;-80
2021/03/04 11:57:41;;;;;;;;;;;;;;;3.55;100.00;99354.91;5039918;28;20719;-80
2021/03/04 12:00:07;;;;;;;;;;;;;;;3.60;100.00;99349.81;5028969;28;19994;-80
2021/03/04 12:02:32;;;;;;;;;;;;;;;3.57;100.00;99344.72;5026686;28;19917;-81
2021/03/04 12:04:58;;;;;;;;;;;;;;;3.48;100.00;99344.72;5028237;28;19916;-80
2021/03/04 12:07:24;;;;;;;;;;;;;;;3.53;100.00;99345.56;5026957;28;19949;-81
2021/03/04 12:09:50;;;;;;;;;;;;;;;3.59;100.00;99350.69;5027163;28;20530;-79
2021/03/04 12:12:15;;;;;;;;;;;;;;;3.54;100.00;99342.19;5046283;28;19921;-78
2021/03/04 12:14:41;;;;;;;;;;;;;;;3.50;100.00;99340.47;5045188;28;19976;-80
2021/03/04 12:17:06;;;;;;;;;;;;;;;3.34;100.00;99335.34;5044011;28;20290;-80
2021/03/04 12:19:31;;;;;;;;;;;;;;;3.62;100.00;99337.09;5020404;28;19916;-79
2021/03/04 12:21:57;;;;;;;;;;;;;;;3.86;100.00;99332.03;5025311;28;19925;-79
2021/03/04 12:24:22;;;;;;;;;;;;;;;3.72;100.00;99321.00;5011174;28;19920;-80
2021/03/04 12:26:48;;;;;;;;;;;;;;;3.74;100.00;99325.25;5028056;28;19927;-80
2021/03/04 12:29:13;;;;;;;;;;;;;;;3.74;100.00;99325.25;5044926;28;20020;-79
2021/03/04 12:31:39;;;;;;;;;;;;;;;3.73;100.00;99328.63;5035413;28;19921;-79
2021/03/04 12:34:05;;;;;;;;;;;;;;;3.71;100.00;99320.13;5043650;28;19927;-80
2021/03/04 12:36:31;;;;;;;;;;;;;;;3.72;100.00;99321.84;5016823;28;20027;-79
2021/03/04 12:38:56;;;;;;;;;;;;;;;3.88;100.00;99312.50;5023714;28;19961;-80
2021/03/04 12:41:21;;;;;;;;;;;;;;;3.94;100.00;99311.63;5043237;28;19920;-79
2021/03/04 12:43:47;;;;;;;;;;;;;;;3.84;100.00;99315.06;5043420;28;19925;-80
2021/03/04 12:46:12;;;;;;;;;;;;;;;3.89;100.00;99301.44;5043745;28;20449;-79
2021/03/04 12:48:37;;;;;;;;;;;;;;;3.78;100.00;99310.78;5011331;28;19968;-80